Time;durP1;ratioP1;P1;durP2;ratioP2;P2;SDS_P1;SDS_P2;PMS_P1;PMS_P2;Temp;Humidity;BMP_temperature;BMP_pressure;BME280_temperature;BME280_humidity;BME280_pressure;Samples;Min_cycle;Max_cycle;Signal;HPM_P1;HPM_P2
2021/11/08 05:40:06;;;;;;;306.27;77.80;;;205.60;2252.80;;;;;;5097994;23;20051;-76
2021/11/08 05:42:33;;;;;;;356.45;79.57;;;205.60;2252.80;;;;;;4955564;29;20024;-76
2021/11/08 05:44:59;;;;;;;330.35;73.97;;;205.70;2252.80;;;;;;4951266;29;20027;-78
2021/11/08 05:47:25;;;;;;;356.35;78.28;;;256.30;2252.80;;;;;;4936692;29;20024;-77
2021/11/08 05:49:52;;;;;;;304.55;76.18;;;230.40;2252.80;;;;;;4943156;29;20027;-78
2021/11/08 05:52:18;;;;;;;295.45;75.97;;;230.40;2252.80;;;;;;4944890;29;20099;-76
2021/11/08 05:54:46;;;;;;;258.95;71.55;;;205.70;2252.80;;;;;;4946287;29;20082;-77
2021/11/08 06:50:16;;;;;;;248.27;69.53;;;230.70;2252.80;;;;;;4938309;29;20052;-80
2021/11/08 06:53:06;;;;;;;225.40;68.13;;;230.70;2252.80;;;;;;4920310;29;20115;-78
2021/11/08 06:58:16;;;;;;;238.30;72.38;;;256.50;2252.80;;;;;;4877629;26;20418;-78
2021/11/08 07:00:43;;;;;;;212.63;70.93;;;230.70;2252.80;;;;;;4932100;29;20067;-77
2021/11/08 07:03:09;;;;;;;219.38;77.28;;;230.70;2252.80;;;;;;4922306;29;20074;-77
2021/11/08 07:05:35;;;;;;;231.98;72.40;;;231.00;2252.80;;;;;;4955261;29;20004;-76
2021/11/08 07:08:05;;;;;;;203.98;67.32;;;231.30;2252.80;;;;;;4947462;29;20053;-78
2021/11/08 07:10:31;;;;;;;184.77;64.05;;;230.70;2252.80;;;;;;4905325;29;20417;-75
2021/11/08 07:12:57;;;;;;;199.50;65.82;;;230.90;2252.80;;;;;;4939507;29;20111;-77
2021/11/08 07:15:24;;;;;;;203.85;67.53;;;230.90;2252.80;;;;;;4937230;29;20066;-78
2021/11/08 07:17:52;;;;;;;198.98;64.93;;;230.80;2252.80;;;;;;4926961;29;20098;-78
2021/11/08 07:20:21;;;;;;;184.95;65.47;;;230.80;2252.80;;;;;;4918143;29;20038;-78
2021/11/08 07:22:47;;;;;;;170.57;62.13;;;230.90;2252.80;;;;;;4918921;29;20054;-77
2021/11/08 07:25:14;;;;;;;176.32;64.40;;;230.90;2252.80;;;;;;4940367;29;20028;-77
2021/11/08 07:27:40;;;;;;;210.73;69.55;;;231.00;2252.80;;;;;;4937755;29;20044;-78
2021/11/08 07:30:10;;;;;;;279.70;71.82;;;230.90;2252.80;;;;;;4924677;29;20565;-78
2021/11/08 07:32:37;;;;;;;198.35;66.65;;;230.90;2252.80;;;;;;4934986;29;20039;-79
2021/11/08 07:35:08;;;;;;;196.65;69.05;;;231.00;2252.80;;;;;;4930369;29;20060;-79
2021/11/08 07:37:38;;;;;;;206.15;72.57;;;230.90;2252.80;;;;;;4938345;29;20036;-79
2021/11/08 07:40:16;;;;;;;219.68;76.47;;;231.00;2252.80;;;;;;4952439;29;20020;-79
2021/11/08 07:43:12;;;;;;;200.25;72.10;;;231.00;2252.80;;;;;;4938176;29;20027;-78
2021/11/08 07:45:39;;;;;;;228.45;84.03;;;;;;;;;;4881930;29;20037;-77
2021/11/08 07:48:06;;;;;;;208.60;83.40;;;;;;;;;;4903946;29;20033;-75
2021/11/08 07:50:52;;;;;;;189.15;76.57;;;;;;;;;;4909526;29;20643;-74
2021/11/08 07:53:27;;;;;;;185.50;72.80;;;;;;;;;;4898848;29;20069;-75
2021/11/08 07:55:53;;;;;;;195.15;73.03;;;;;;;;;;4894270;29;20060;-75
2021/11/08 07:58:19;;;;;;;223.10;95.30;;;;;;;;;;4906509;29;20487;-74
2021/11/08 08:00:45;;;;;;;251.55;109.63;;;;;;;;;;4897929;29;20044;-77
2021/11/08 08:03:11;;;;;;;327.10;152.43;;;;;;;;;;4885650;29;20033;-76
2021/11/08 08:05:38;;;;;;;227.52;99.43;;;;;;;;;;4901612;29;20092;-76
2021/11/08 08:08:05;;;;;;;225.60;96.13;;;;;;;;;;4882138;29;20108;-77
2021/11/08 08:10:31;;;;;;;185.15;76.53;;;;;;;;;;4895462;29;20304;-76
2021/11/08 08:12:57;;;;;;;173.77;73.80;;;;;;;;;;4874168;29;20043;-74
2021/11/08 08:15:23;;;;;;;171.82;76.00;;;;;;;;;;4902906;29;20050;-75
2021/11/08 08:17:49;;;;;;;188.70;80.70;;;;;;;;;;4940750;29;20095;-77
2021/11/08 08:20:20;;;;;;;169.82;75.72;;;;;;;;;;4940598;29;20050;-74
2021/11/08 08:22:47;;;;;;;175.43;76.82;;;;;;;;;;4933479;29;20099;-74
2021/11/08 08:25:14;;;;;;;186.10;80.80;;;;;;;;;;4943329;29;20024;-75
2021/11/08 08:27:40;;;;;;;175.30;82.57;;;;;;;;;;4940467;29;20123;-76
2021/11/08 08:30:07;;;;;;;171.43;77.22;;;;;;;;;;4940009;29;20022;-75
2021/11/08 08:32:33;;;;;;;189.57;88.60;;;;;;;;;;4920012;29;20044;-76
2021/11/08 08:35:00;;;;;;;182.32;82.20;;;;;;;;;;4951613;29;20027;-73
2021/11/08 08:37:32;;;;;;;183.68;81.10;;;;;;;;;;4960240;29;20050;-72
2021/11/08 08:39:58;;;;;;;175.95;79.07;;;;;;;;;;4951611;29;20501;-77
2021/11/08 08:42:33;;;;;;;165.48;75.28;;;;;;;;;;4954395;29;20031;-79
2021/11/08 08:45:17;;;;;;;167.00;74.82;;;;;;;;;;4909426;29;20055;-77
2021/11/08 08:47:43;;;;;;;156.70;74.03;;;;;;;;;;4914057;29;20041;-76
2021/11/08 08:50:12;;;;;;;147.07;72.47;;;;;;;;;;4898068;29;20036;-77
2021/11/08 08:55:43;;;;;;;158.57;76.57;;;;;;;;;;4886067;29;20063;-78
2021/11/08 08:58:10;;;;;;;151.60;75.05;;;;;;;;;;4916026;29;20059;-76
2021/11/08 09:03:57;;;;;;;159.93;78.38;;;;;;;;;;5366820;23;20092;-74
2021/11/08 09:06:24;;;;;;;160.77;82.10;;;;;;;;;;4937794;29;20036;-75
2021/11/08 09:08:53;;;;;;;144.80;72.50;;;;;;;;;;4918234;29;20036;-78
2021/11/08 09:11:19;;;;;;;150.55;73.30;;;;;;;;;;4917598;29;20027;-77
2021/11/08 09:13:46;;;;;;;128.90;71.97;;;;;;;;;;4917824;29;20039;-75
2021/11/08 09:16:36;;;;;;;146.35;77.55;;;;;;;;;;4931659;29;20043;-79
2021/11/08 09:19:04;;;;;;;138.43;71.82;;;;;;;;;;4925044;29;20565;-78
2021/11/08 09:21:33;;;;;;;117.38;67.80;;;;;;;;;;4924157;29;20466;-77
2021/11/08 09:24:03;;;;;;;114.05;64.68;;;;;;;;;;4937020;29;20455;-78
2021/11/08 09:26:34;;;;;;;110.60;62.80;;;;;;;;;;4935509;29;20032;-79
2021/11/08 09:29:02;;;;;;;93.95;55.85;;;;;;;;;;4915295;29;20195;-78
2021/11/08 09:37:36;;;;;;;120.45;68.45;;;;;;;;;;5349672;23;20047;-82
2021/11/08 09:40:21;;;;;;;124.38;65.15;;;;;;;;;;4941386;29;20356;-75
2021/11/08 09:42:52;;;;;;;122.22;68.07;;;;;;;;;;4916762;29;20039;-77
2021/11/08 09:45:18;;;;;;;134.70;75.60;;;;;;;;;;4923365;29;20058;-78
2021/11/08 09:47:45;;;;;;;195.00;112.13;;;;;;;;;;4922230;29;20027;-76
2021/11/08 09:50:12;;;;;;;169.73;94.13;;;;;;;;;;4933858;29;20031;-75
2021/11/08 09:52:41;;;;;;;147.07;80.80;;;;;;;;;;4944402;29;20090;-75
2021/11/08 09:55:10;;;;;;;132.90;75.53;;;;;;;;;;4945291;29;20028;-75
2021/11/08 09:57:37;;;;;;;120.35;68.05;;;;;;;;;;4928954;29;20036;-78
2021/11/08 10:00:14;;;;;;;128.05;66.95;;;;;;;;;;4949087;29;20106;-76
2021/11/08 10:05:42;;;;;;;117.35;64.57;;;;;;;;;;4922682;29;20047;-75
2021/11/08 10:08:09;;;;;;;110.85;62.03;;;;;;;;;;4916917;29;20067;-75
2021/11/08 10:10:35;;;;;;;113.03;64.68;;;;;;;;;;4925992;29;20031;-75
2021/11/08 10:13:12;;;;;;;110.85;63.50;;;;;;;;;;4921545;29;20052;-76
2021/11/08 10:15:40;;;;;;;110.88;62.88;;;;;;;;;;4921551;29;20020;-76
2021/11/08 10:18:06;;;;;;;117.95;64.97;;;;;;;;;;4921421;29;20056;-75
2021/11/08 10:20:36;;;;;;;106.75;62.78;;;;;;;;;;4925279;29;20024;-77
2021/11/08 10:23:42;;;;;;;95.70;57.05;;;;;;;;;;4924172;29;20028;-80
2021/11/08 10:26:24;;;;;;;98.93;59.25;;;;;;;;;;4924283;29;20032;-82
2021/11/08 10:28:55;;;;;;;106.88;60.20;;;;;;;;;;4920317;29;20608;-76
2021/11/08 10:31:24;;;;;;;121.72;68.75;;;;;;;;;;4914686;29;20080;-76
2021/11/08 10:36:29;;;;;;;106.80;62.72;;;;;;;;;;5485321;23;20772;-78
2021/11/08 10:39:09;;;;;;;89.25;56.83;;;;;;;;;;4918750;28;20071;-78
2021/11/08 10:41:40;;;;;;;91.35;57.00;;;;;;;;;;4913205;29;20028;-75
2021/11/08 10:44:32;;;;;;;82.38;54.15;;;;;;;;;;4898986;29;20092;-75
2021/11/08 10:47:04;;;;;;;88.65;57.88;;;;;;;;;;4900908;29;20044;-74
2021/11/08 10:49:36;;;;;;;91.63;57.13;;;;;;;;;;4909380;29;20036;-75
2021/11/08 10:52:03;;;;;;;87.05;53.08;;;;;;;;;;4897425;29;20045;-75
2021/11/08 10:54:36;;;;;;;78.32;49.97;;;;;;;;;;4894271;29;20019;-75
2021/11/08 10:57:05;;;;;;;69.93;48.30;;;;;;;;;;4900950;29;20052;-76
2021/11/08 10:59:33;;;;;;;63.22;43.58;;;;;;;;;;4895943;29;20059;-76
2021/11/08 11:02:01;;;;;;;63.30;42.88;;;;;;;;;;4904287;29;20032;-76
2021/11/08 11:04:32;;;;;;;47.67;33.30;;;;;;;;;;4913165;29;20052;-76
2021/11/08 11:07:01;;;;;;;43.28;30.85;;;;;;;;;;4897904;29;20029;-76
2021/11/08 11:09:28;;;;;;;45.45;33.17;;;;;;;;;;4915263;29;20025;-75
2021/11/08 11:12:07;;;;;;;51.10;35.47;;;;;;;;;;4902440;29;20053;-76
2021/11/08 11:14:44;;;;;;;55.38;37.67;;;;;;;;;;4892434;29;20028;-76
2021/11/08 11:17:13;;;;;;;57.30;40.63;;;;;;;;;;4889408;29;20029;-76
2021/11/08 11:19:44;;;;;;;48.83;33.85;;;;;;;;;;4905387;29;20545;-75
2021/11/08 11:22:14;;;;;;;45.38;32.58;;;;;;;;;;4915534;29;20099;-75
2021/11/08 11:24:43;;;;;;;47.03;32.45;;;;;;;;;;4886742;29;20040;-75
2021/11/08 11:27:12;;;;;;;46.15;30.77;;;;;;;;;;4908624;29;20021;-75
2021/11/08 11:29:38;;;;;;;45.17;31.60;;;;;;;;;;4890449;29;20046;-75
2021/11/08 11:32:04;;;;;;;50.00;33.47;;;;;;;;;;4912244;29;20471;-76
2021/11/08 11:34:31;;;;;;;46.55;32.05;;;;;;;;;;4890923;29;20471;-76
2021/11/08 11:37:00;;;;;;;48.42;36.88;;;;;;;;;;4888653;29;20096;-75
2021/11/08 11:39:27;;;;;;;41.33;30.85;;;;;;;;;;4917155;29;20039;-75
2021/11/08 11:42:00;;;;;;;47.75;33.58;;;;;;;;;;4889118;29;20368;-76
2021/11/08 11:44:27;;;;;;;53.70;37.42;;;;;;;;;;4903680;29;20115;-76
2021/11/08 11:46:56;;;;;;;54.30;39.00;;;;;;;;;;4911226;29;20028;-76
2021/11/08 11:49:22;;;;;;;47.45;33.92;;;;;;;;;;4906177;29;20067;-74
2021/11/08 11:51:50;;;;;;;51.53;34.67;;;;;;;;;;4909367;29;20162;-75
2021/11/08 11:54:21;;;;;;;45.53;30.35;;;;;;;;;;4926016;29;20044;-75
2021/11/08 11:56:50;;;;;;;44.28;31.88;;;;;;;;;;4922424;29;20032;-75
2021/11/08 11:59:17;;;;;;;42.67;31.20;;;;;;;;;;4910980;29;20035;-75
2021/11/08 12:01:44;;;;;;;45.97;32.15;;;;;;;;;;4915005;29;20032;-75
2021/11/08 12:04:12;;;;;;;42.83;27.23;;;;;;;;;;4930218;29;20390;-76
2021/11/08 12:06:49;;;;;;;43.28;29.08;;;;;;;;;;4930108;29;20033;-77
2021/11/08 12:09:20;;;;;;;35.78;24.58;;;;;;;;;;4923123;29;20036;-77
2021/11/08 12:11:52;;;;;;;32.03;23.80;;;;;;;;;;4910970;29;20039;-76
2021/11/08 12:14:20;;;;;;;37.67;28.17;;;;;;;;;;4916796;29;20032;-76
2021/11/08 12:16:58;;;;;;;32.67;22.80;;;;;;;;;;4928852;29;20043;-76
2021/11/08 12:19:30;;;;;;;32.00;21.85;;;;;;;;;;4904818;29;20043;-76
2021/11/08 12:22:07;;;;;;;29.83;21.35;;;;;;;;;;4928664;29;20034;-76
2021/11/08 12:24:40;;;;;;;25.80;18.35;;;;;;;;;;4925368;29;20043;-76
2021/11/08 12:27:35;;;;;;;27.63;18.10;;;;;;;;;;4929710;29;20036;-76
2021/11/08 12:30:10;;;;;;;25.23;18.05;;;;;;;;;;4915539;29;20055;-76
2021/11/08 12:32:55;;;;;;;22.95;16.25;;;;;;;;;;4916331;29;20495;-76
2021/11/08 12:35:52;;;;;;;22.63;17.33;;;;;;;;;;4926212;29;20080;-76
2021/11/08 12:38:42;;;;;;;25.83;17.73;;;;;;;;;;4887117;29;20442;-76
2021/11/08 12:41:14;;;;;;;25.73;17.35;;;;;;;;;;4929295;29;20071;-76
2021/11/08 12:43:42;;;;;;;22.70;16.90;;;;;;;;;;4928320;29;20031;-76
2021/11/08 12:46:12;;;;;;;23.88;15.82;;;;;;;;;;4927797;29;20024;-76
2021/11/08 12:48:49;;;;;;;22.00;17.13;;;;;;;;;;4918736;29;20028;-76
2021/11/08 12:51:18;;;;;;;24.77;18.52;;;;;;;;;;4916866;29;20056;-76
2021/11/08 12:53:48;;;;;;;42.38;31.33;;;;;;;;;;4909617;29;20489;-76
2021/11/08 12:56:30;;;;;;;30.55;23.10;;;;;;;;;;4933457;29;20406;-76
2021/11/08 12:59:03;;;;;;;24.45;17.98;;;;;;;;;;4909341;29;20063;-76
2021/11/08 13:01:48;;;;;;;18.73;14.18;;;;;;;;;;4923431;29;20025;-76
2021/11/08 13:04:19;;;;;;;17.42;13.50;;;;;;;;;;4935371;29;20051;-76
2021/11/08 13:06:51;;;;;;;16.67;12.90;;;;;;;;;;4896461;29;20051;-76
2021/11/08 13:09:25;;;;;;;20.95;13.55;;;;;;;;;;4936289;29;20035;-76
2021/11/08 13:11:58;;;;;;;17.05;13.75;;;;;;;;;;4896462;29;20034;-76
2021/11/08 13:14:38;;;;;;;21.13;15.55;;;;;;;;;;4926391;29;20040;-77
2021/11/08 13:17:19;;;;;;;18.17;13.13;;;;;;;;;;4906968;29;20467;-77
2021/11/08 13:19:53;;;;;;;20.67;12.77;;;;;;;;;;4912627;29;20039;-77
2021/11/08 13:22:48;;;;;;;18.92;14.25;;;;;;;;;;4937133;29;20046;-80
2021/11/08 13:25:38;;;;;;;16.65;12.40;;;;;;;;;;4921444;29;20326;-79
2021/11/08 13:28:08;;;;;;;120.43;56.30;;;;;;;;;;4917875;29;20044;-80
2021/11/08 13:30:41;;;;;;;38.85;25.45;;;;;;;;;;4916170;29;20063;-78
2021/11/08 13:33:08;;;;;;;27.33;19.33;;;;;;;;;;4902799;29;20064;-76
2021/11/08 13:50:53;;;;;;;20.23;14.50;;;;;;;;;;5923578;23;20091;-77
2021/11/08 13:53:25;;;;;;;18.58;14.55;;;;;;;;;;4941187;28;20044;-75
2021/11/08 13:55:54;;;;;;;20.33;15.18;;;;;;;;;;4920962;29;20488;-76
2021/11/08 13:58:21;;;;;;;23.08;16.17;;;;;;;;;;4932603;29;20370;-77
2021/11/08 14:00:48;;;;;;;22.55;14.52;;;;;;;;;;4927427;29;20035;-75
2021/11/08 14:03:15;;;;;;;20.92;14.98;;;;;;;;;;4920197;29;20028;-76
2021/11/08 14:09:11;;;;;;;21.67;15.43;;;;;;;;;;5553445;23;20480;-79
2021/11/08 14:11:43;;;;;;;25.65;17.75;;;;;;;;;;4930331;29;20068;-78
2021/11/08 14:14:19;;;;;;;38.50;27.02;;;;;;;;;;4914976;29;20051;-77
2021/11/08 14:16:47;;;;;;;28.88;20.75;;;;;;;;;;4909352;29;20039;-76
2021/11/08 14:19:14;;;;;;;29.38;21.98;;;;;;;;;;4931539;29;20057;-76
2021/11/08 14:21:53;;;;;;;35.03;24.25;;;;;;;;;;4926055;29;20028;-77
2021/11/08 14:24:26;;;;;;;29.65;21.05;;;;;;;;;;4922962;29;20016;-79
2021/11/08 14:26:56;;;;;;;26.95;17.75;;;;;;;;;;4881613;29;20036;-76
2021/11/08 14:29:32;;;;;;;23.30;16.52;;;;;;;;;;4903655;29;20166;-77
2021/11/08 14:31:58;;;;;;;20.23;16.02;;;;;;;;;;4912282;29;20044;-76
2021/11/08 14:40:47;;;;;;;24.33;18.85;;;;;;;;;;4814476;29;20043;-80
2021/11/08 14:43:14;;;;;;;25.23;17.45;;;;;;;;;;4793080;29;20047;-77
2021/11/08 14:45:42;;;;;;;32.47;22.17;;;;;;;;;;4804413;29;20550;-77
2021/11/08 14:48:11;;;;;;;21.25;16.38;;;;;;;;;;4790982;29;20035;-77
2021/11/08 14:50:38;;;;;;;24.85;18.23;;;;;;;;;;4802565;29;20042;-78
2021/11/08 14:53:08;;;;;;;24.88;16.23;;;;;;;;;;4778878;30;20051;-77
2021/11/08 14:55:36;;;;;;;20.85;15.60;;;;;;;;;;4782966;29;20043;-77
2021/11/08 14:58:13;;;;;;;27.02;17.13;;;;;;;;;;4794552;29;20059;-76
2021/11/08 15:00:47;;;;;;;22.38;17.17;;;;;;;;;;4785789;30;20130;-77
2021/11/08 15:03:17;;;;;;;24.48;15.68;;;;;;;;;;4800208;29;20039;-77
2021/11/08 15:05:45;;;;;;;23.88;16.55;;;;;;;;;;4794086;29;20043;-76
2021/11/08 15:08:24;;;;;;;21.67;15.63;;;;;;;;;;4835625;29;20118;-76
2021/11/08 15:10:53;;;;;;;24.30;16.20;;;;;;;;;;4835401;29;20046;-77
2021/11/08 15:13:22;;;;;;;25.83;16.55;;;;;;;;;;4832290;29;20034;-78
2021/11/08 15:15:56;;;;;;;23.48;16.65;;;;;;;;;;4823144;29;20065;-78
2021/11/08 15:18:24;;;;;;;25.38;17.45;;;;;;;;;;4881395;29;20033;-77
2021/11/08 15:21:02;;;;;;;21.52;17.00;;;;;;;;;;4900582;29;20064;-78
2021/11/08 15:23:49;;;;;;;25.23;18.58;;;;;;;;;;4914010;29;20044;-78
2021/11/08 15:26:17;;;;;;;26.35;17.83;;;;;;;;;;4896974;29;20020;-77
2021/11/08 15:28:45;;;;;;;28.33;19.58;;;;;;;;;;4906121;29;20068;-76
2021/11/08 15:31:13;;;;;;;26.73;19.92;;;;;;;;;;4886236;29;20059;-77
2021/11/08 15:34:22;;;;;;;24.90;17.67;;;;;;;;;;4891443;29;20044;-76
2021/11/08 15:37:04;;;;;;;30.52;19.50;;;;;;;;;;4906538;29;20035;-78
2021/11/08 15:39:31;;;;;;;31.30;21.00;;;;;;;;;;4900013;29;20028;-78
2021/11/08 15:42:03;;;;;;;27.30;18.85;;;;;;;;;;4900183;29;20028;-77
2021/11/08 15:44:30;;;;;;;30.08;20.77;;;;;;;;;;4892518;29;20044;-76
2021/11/08 15:46:59;;;;;;;30.58;20.88;;;;;;;;;;4891566;29;20075;-78
2021/11/08 15:49:26;;;;;;;32.50;21.83;;;;;;;;;;4899962;29;20107;-77
2021/11/08 15:51:52;;;;;;;33.85;23.15;;;;;;;;;;4880997;29;20407;-77
2021/11/08 15:54:23;;;;;;;42.67;27.77;;;;;;;;;;4885928;29;20039;-77
2021/11/08 15:56:55;;;;;;;42.67;27.88;;;;;;;;;;4898752;29;20025;-76
2021/11/08 15:59:23;;;;;;;37.97;25.48;;;;;;;;;;4883953;29;20498;-78
2021/11/08 16:01:50;;;;;;;34.47;23.40;;;;;;;;;;4892785;29;20040;-78
2021/11/08 16:04:16;;;;;;;30.63;23.38;;;;;;;;;;4910008;29;20052;-77
2021/11/08 16:06:50;;;;;;;35.35;24.98;;;;;;;;;;4899059;29;20036;-78
2021/11/08 16:13:20;;;;;;;36.80;26.50;;;;;;;;;;4954228;29;20046;-80
2021/11/08 16:16:35;;;;;;;39.67;27.63;;;;;;;;;;4939308;29;20032;-79
2021/11/08 16:19:18;;;;;;;49.55;27.73;;;;;;;;;;4859642;29;20041;-80
2021/11/08 16:21:52;;;;;;;42.22;28.60;;;;;;;;;;4833193;29;20628;-80
2021/11/08 16:24:29;;;;;;;55.67;34.45;;;;;;;;;;4835386;29;20045;-79
2021/11/08 16:26:59;;;;;;;47.88;33.33;;;;;;;;;;4844700;29;20040;-79
2021/11/08 16:29:41;;;;;;;46.47;33.33;;;;;;;;;;4857833;29;20046;-79
2021/11/08 16:32:30;;;;;;;56.55;38.33;;;;;;;;;;4862538;29;20071;-79
2021/11/08 16:34:57;;;;;;;38.65;29.15;;;;;;;;;;4844056;29;20052;-80
2021/11/08 16:37:57;;;;;;;39.78;31.00;;;;;;;;;;4847986;29;20083;-79
2021/11/08 16:40:48;;;;;;;38.65;28.27;;;;;;;;;;4823854;29;20031;-79
2021/11/08 16:43:33;;;;;;;41.55;27.65;;;;;;;;;;4818176;29;20059;-79
2021/11/08 16:46:10;;;;;;;38.28;28.60;;;;;;;;;;4806915;29;20080;-80
2021/11/08 16:48:39;;;;;;;45.95;30.63;;;;;;;;;;4779056;30;20086;-77
2021/11/08 16:51:06;;;;;;;45.05;31.92;;;;;;;;;;4775140;30;20039;-77
2021/11/08 16:53:34;;;;;;;50.53;35.67;;;;;;;;;;4768754;30;20147;-76
2021/11/08 16:56:00;;;;;;;54.95;42.63;;;;;;;;;;4792413;29;20038;-76
2021/11/08 16:58:29;;;;;;;64.32;48.28;;;;;;;;;;4800842;29;20054;-76
2021/11/08 17:00:58;;;;;;;58.08;43.08;;;;;;;;;;4803747;29;20134;-76
2021/11/08 17:03:25;;;;;;;54.08;40.30;;;;;;;;;;4806021;29;20046;-77
2021/11/08 17:06:12;;;;;;;74.93;49.53;;;;;;;;;;4796830;29;20039;-77
2021/11/08 17:08:49;;;;;;;108.53;63.08;;;;;;;;;;4801307;29;20039;-76
2021/11/08 17:13:09;;;;;;;80.50;51.00;;;;;;;;;;4801498;29;20093;-74
2021/11/08 17:14:25;;;;;;;75.38;51.58;;;;;;;;;;4803735;29;20050;-77
2021/11/08 17:17:08;;;;;;;44.90;35.58;;;;;;;;;;4814011;29;20040;-79
2021/11/08 17:25:36;;;;;;;36.20;26.02;;;;;;;;;;5026575;23;20088;-76
2021/11/08 17:28:23;;;;;;;37.17;27.38;;;;;;;;;;4885478;29;20056;-79
2021/11/08 17:31:18;;;;;;;34.92;27.70;;;;;;;;;;4853941;29;20042;-80
2021/11/08 17:34:06;;;;;;;35.25;26.60;;;;;;;;;;4830772;29;20047;-76
2021/11/08 17:36:34;;;;;;;40.97;29.88;;;;;;;;;;4828648;29;20077;-75
2021/11/08 17:39:04;;;;;;;42.42;33.25;;;;;;;;;;4816274;29;20050;-75
2021/11/08 17:41:31;;;;;;;46.95;35.38;;;;;;;;;;4801983;29;20121;-76
2021/11/08 17:43:57;;;;;;;44.97;33.20;;;;;;;;;;4797181;29;20034;-78
2021/11/08 17:46:26;;;;;;;39.53;29.05;;;;;;;;;;4808611;29;20066;-75
2021/11/08 17:48:56;;;;;;;44.25;33.58;;;;;;;;;;4803858;29;20047;-76
2021/11/08 17:51:42;;;;;;;42.75;28.95;;;;;;;;;;4813377;29;20049;-76
2021/11/08 17:54:13;;;;;;;42.85;29.58;;;;;;;;;;4818946;29;20054;-79
2021/11/08 17:56:39;;;;;;;43.40;30.08;;;;;;;;;;4828477;29;20041;-80
2021/11/08 17:59:06;;;;;;;50.33;34.42;;;;;;;;;;4837375;29;20060;-77
2021/11/08 18:01:33;;;;;;;60.85;39.50;;;;;;;;;;4865538;29;20040;-78
2021/11/08 18:04:00;;;;;;;48.92;33.85;;;;;;;;;;4869888;29;20037;-77
2021/11/08 18:06:26;;;;;;;47.50;33.25;;;;;;;;;;4865586;29;20034;-76
2021/11/08 18:08:54;;;;;;;43.95;30.60;;;;;;;;;;4873736;29;20033;-79
2021/11/08 18:11:51;;;;;;;42.13;29.33;;;;;;;;;;4886088;29;20022;-81
2021/11/08 18:14:54;;;;;;;39.80;30.13;;;;;;;;;;4882692;29;20046;-81
2021/11/08 18:17:23;;;;;;;36.88;27.55;;;;;;;;;;4869195;29;20070;-80
2021/11/08 18:19:56;;;;;;;35.67;26.17;;;;;;;;;;4849985;29;20049;-77
2021/11/08 18:28:55;;;;;;;34.00;26.83;;;;;;;;;;4794144;30;20077;-78
2021/11/08 18:31:36;;;;;;;39.67;29.75;;;;;;;;;;4786264;30;20020;-79
2021/11/08 18:36:50;;;;;;;28.77;24.20;;;;;;;;;;5447102;23;20059;-78
2021/11/08 18:39:19;;;;;;;37.95;27.02;;;;;;;;;;4947721;29;20134;-76
2021/11/08 18:41:47;;;;;;;33.10;24.95;;;;;;;;;;4937707;29;20118;-77
2021/11/08 18:44:13;;;;;;;36.05;26.13;;;;;;;;;;4932776;29;20051;-77
2021/11/08 18:46:39;;;;;;;32.30;25.38;;;;;;;;;;4914779;29;20135;-76
2021/11/08 18:49:12;;;;;;;31.15;23.60;;;;;;;;;;4937829;29;20027;-79
2021/11/08 19:02:31;;;;;;;38.30;26.45;;;;;;;;;;5467439;23;20437;-76
2021/11/08 19:05:10;;;;;;;32.28;23.42;;;;;;;;;;4939935;29;20505;-77
2021/11/08 19:07:50;;;;;;;36.25;25.73;;;;;;;;;;4921610;29;20042;-76
2021/11/08 19:10:18;;;;;;;32.28;24.40;;;;;;;;;;4912315;29;20115;-77
2021/11/08 19:12:49;;;;;;;28.45;21.63;;;;;;;;;;4939628;29;20048;-80
2021/11/08 19:20:35;;;;;;;30.50;22.85;;;;;;;;;;5548540;23;20063;-75
2021/11/08 19:23:04;;;;;;;31.75;23.92;;;;;;;;;;5013222;23;20099;-78
2021/11/08 19:25:35;;;;;;;34.38;22.83;;;;;;;;;;4922673;29;20070;-77
2021/11/08 19:28:18;;;;;;;35.38;23.02;;;;;;;;;;4950270;29;20063;-79
2021/11/08 19:31:11;;;;;;;28.55;22.63;;;;;;;;;;4951923;29;20114;-79
2021/11/08 19:34:10;;;;;;;32.58;22.23;;;;;;;;;;4941088;29;20056;-79
2021/11/08 19:42:49;;;;;;;;;;;;;;;;;;;;;
2021/11/08 19:45:16;;;;;;;40.25;27.42;;;;;;;;;;4865422;29;20042;-78
2021/11/08 19:47:42;;;;;;;36.67;27.95;;;;;;;;;;4872816;29;20074;-76
2021/11/08 19:50:08;;;;;;;46.75;31.90;;;;;;;;;;4872403;29;20089;-78
2021/11/08 19:52:35;;;;;;;44.40;32.03;;;;;;;;;;4873150;29;20037;-77
2021/11/08 19:55:05;;;;;;;43.25;30.08;;;;;;;;;;4865324;29;20037;-78
2021/11/08 19:57:31;;;;;;;50.13;34.17;;;;;;;;;;4874295;29;20032;-77
2021/11/08 19:59:57;;;;;;;44.65;33.10;;;;;;;;;;4883596;29;20049;-78
2021/11/08 20:02:23;;;;;;;46.55;32.47;;;;;;;;;;4870204;29;20030;-75
2021/11/08 20:04:53;;;;;;;53.00;35.10;;;;;;;;;;4876178;29;20532;-78
2021/11/08 20:11:00;;;;;;;50.13;32.03;;;;;;;;;;5043459;23;20025;-79
2021/11/08 20:14:18;;;;;;;37.58;28.05;;;;;;;;;;4804313;29;20047;-80
2021/11/08 20:19:25;;;;;;;35.60;26.70;;;;;;;;;;4845776;27;20048;-77
2021/11/08 20:21:51;;;;;;;42.08;29.92;;;;;;;;;;4913148;29;20398;-75
2021/11/08 20:24:18;;;;;;;39.08;28.30;;;;;;;;;;4913017;29;20028;-76
2021/11/08 20:26:44;;;;;;;45.00;29.25;;;;;;;;;;4914869;29;20099;-75
2021/11/08 20:29:16;;;;;;;40.53;29.05;;;;;;;;;;4918443;29;20113;-76
2021/11/08 20:56:58;;;;;;;42.05;28.80;;;;;;;;;;4859996;29;20052;-78
2021/11/08 20:59:46;;;;;;;40.15;27.27;;;;;;;;;;4869358;29;20026;-78
2021/11/08 21:02:31;;;;;;;34.45;25.23;;;;;;;;;;4852028;29;20041;-77
2021/11/08 21:23:52;;;;;;;42.45;30.50;;;;;;;;;;4888785;29;20060;-79
2021/11/08 22:46:18;;;;;;;;;;;;;;;;;;;;;
2021/11/08 22:49:02;;;;;;;45.50;31.88;;;;;;;;;;4823333;29;20317;-80
2021/11/08 22:55:23;;;;;;;;;;;;;;;;;;;;;
2021/11/08 23:02:29;;;;;;;;;;;;;;;;;;;;;
2021/11/08 23:04:41;;;;;;;46.08;32.92;;;;;;;;;;4683096;30;20085;-80
2021/11/08 23:08:01;;;;;;;;;;;;;;;;;;;;;
2021/11/08 23:11:37;;;;;;;49.83;32.72;;;;;;;;;;4616802;31;20067;-80
